sensor_id;sensor_type;location;lat;lon;timestamp;temperature;humidity
4964;DHT22;2497;47.410;9.740;2023-03-31T00:01:30;9.60;99.90
4964;DHT22;2497;47.410;9.740;2023-03-31T00:04:01;9.60;99.90
4964;DHT22;2497;47.410;9.740;2023-03-31T00:06:29;9.60;99.90
4964;DHT22;2497;47.410;9.740;2023-03-31T00:08:58;9.60;99.90
4964;DHT22;2497;47.410;9.740;2023-03-31T00:11:27;9.60;99.90
4964;DHT22;2497;47.410;9.740;2023-03-31T00:13:56;9.60;99.90
4964;DHT22;2497;47.410;9.740;2023-03-31T00:16:23;9.60;99.90
4964;DHT22;2497;47.410;9.740;2023-03-31T00:18:52;9.70;99.90
4964;DHT22;2497;47.410;9.740;2023-03-31T00:21:22;9.60;99.90
4964;DHT22;2497;47.410;9.740;2023-03-31T00:24:01;9.60;99.90
4964;DHT22;2497;47.410;9.740;2023-03-31T00:26:29;9.60;99.90
4964;DHT22;2497;47.410;9.740;2023-03-31T00:28:57;9.50;99.90
4964;DHT22;2497;47.410;9.740;2023-03-31T00:31:24;9.40;99.90
4964;DHT22;2497;47.410;9.740;2023-03-31T00:33:53;9.40;99.90
4964;DHT22;2497;47.410;9.740;2023-03-31T00:36:20;9.40;99.90
4964;DHT22;2497;47.410;9.740;2023-03-31T00:38:52;9.30;99.90
4964;DHT22;2497;47.410;9.740;2023-03-31T00:41:21;9.30;99.90
4964;DHT22;2497;47.410;9.740;2023-03-31T00:44:06;9.30;99.90
4964;DHT22;2497;47.410;9.740;2023-03-31T00:46:36;9.50;99.90
4964;DHT22;2497;47.410;9.740;2023-03-31T00:49:13;9.60;99.90
4964;DHT22;2497;47.410;9.740;2023-03-31T00:51:43;9.70;99.90
4964;DHT22;2497;47.410;9.740;2023-03-31T00:54:10;9.60;99.90
4964;DHT22;2497;47.410;9.740;2023-03-31T00:56:43;9.40;99.90
4964;DHT22;2497;47.410;9.740;2023-03-31T00:59:13;9.40;99.90
4964;DHT22;2497;47.410;9.740;2023-03-31T01:01:44;9.30;99.90
4964;DHT22;2497;47.410;9.740;2023-03-31T01:04:13;9.30;99.90
4964;DHT22;2497;47.410;9.740;2023-03-31T01:06:46;9.30;99.90
4964;DHT22;2497;47.410;9.740;2023-03-31T01:09:16;9.30;99.90
4964;DHT22;2497;47.410;9.740;2023-03-31T01:11:47;9.30;99.90
4964;DHT22;2497;47.410;9.740;2023-03-31T01:14:15;9.40;99.90
4964;DHT22;2497;47.410;9.740;2023-03-31T01:16:43;9.50;99.90
4964;DHT22;2497;47.410;9.740;2023-03-31T01:19:17;9.40;99.90
4964;DHT22;2497;47.410;9.740;2023-03-31T01:25:14;9.40;99.90
4964;DHT22;2497;47.410;9.740;2023-03-31T01:27:55;9.60;99.90
4964;DHT22;2497;47.410;9.740;2023-03-31T01:42:33;9.60;99.90
4964;DHT22;2497;47.410;9.740;2023-03-31T01:45:09;9.60;99.90
4964;DHT22;2497;47.410;9.740;2023-03-31T01:47:44;9.70;99.90
4964;DHT22;2497;47.410;9.740;2023-03-31T01:50:17;9.60;99.90
4964;DHT22;2497;47.410;9.740;2023-03-31T01:52:54;9.60;99.90
4964;DHT22;2497;47.410;9.740;2023-03-31T01:55:24;9.50;99.90
4964;DHT22;2497;47.410;9.740;2023-03-31T01:57:58;9.40;99.90
4964;DHT22;2497;47.410;9.740;2023-03-31T02:00:28;9.60;99.90
4964;DHT22;2497;47.410;9.740;2023-03-31T02:03:02;9.70;99.90
4964;DHT22;2497;47.410;9.740;2023-03-31T02:05:36;9.80;99.90
4964;DHT22;2497;47.410;9.740;2023-03-31T02:08:08;9.60;99.90
4964;DHT22;2497;47.410;9.740;2023-03-31T02:10:38;9.50;99.90
4964;DHT22;2497;47.410;9.740;2023-03-31T02:13:10;9.50;99.90
4964;DHT22;2497;47.410;9.740;2023-03-31T02:15:42;9.40;99.90
4964;DHT22;2497;47.410;9.740;2023-03-31T02:18:15;9.40;99.90
4964;DHT22;2497;47.410;9.740;2023-03-31T02:20:46;9.30;99.90
4964;DHT22;2497;47.410;9.740;2023-03-31T02:23:17;9.40;99.90
4964;DHT22;2497;47.410;9.740;2023-03-31T02:25:48;9.30;99.90
4964;DHT22;2497;47.410;9.740;2023-03-31T02:28:24;9.40;99.90
4964;DHT22;2497;47.410;9.740;2023-03-31T02:31:03;9.30;99.90
4964;DHT22;2497;47.410;9.740;2023-03-31T02:33:32;9.10;99.90
4964;DHT22;2497;47.410;9.740;2023-03-31T02:35:59;9.10;99.90
4964;DHT22;2497;47.410;9.740;2023-03-31T02:38:27;9.00;99.90
4964;DHT22;2497;47.410;9.740;2023-03-31T02:40:56;9.00;99.90
4964;DHT22;2497;47.410;9.740;2023-03-31T02:43:35;9.10;99.90
4964;DHT22;2497;47.410;9.740;2023-03-31T02:46:02;9.20;99.90
4964;DHT22;2497;47.410;9.740;2023-03-31T02:48:31;9.20;99.90
4964;DHT22;2497;47.410;9.740;2023-03-31T02:54:25;9.30;99.90
4964;DHT22;2497;47.410;9.740;2023-03-31T02:57:24;9.20;99.90
4964;DHT22;2497;47.410;9.740;2023-03-31T03:00:05;9.20;99.90
4964;DHT22;2497;47.410;9.740;2023-03-31T03:02:41;9.20;99.90
4964;DHT22;2497;47.410;9.740;2023-03-31T03:05:18;9.30;99.90
4964;DHT22;2497;47.410;9.740;2023-03-31T03:07:53;9.30;99.90
4964;DHT22;2497;47.410;9.740;2023-03-31T03:10:29;9.40;99.90
4964;DHT22;2497;47.410;9.740;2023-03-31T03:13:08;9.50;99.90
4964;DHT22;2497;47.410;9.740;2023-03-31T03:15:42;9.30;99.90
4964;DHT22;2497;47.410;9.740;2023-03-31T03:18:11;9.20;99.90
4964;DHT22;2497;47.410;9.740;2023-03-31T03:20:39;9.20;99.90
4964;DHT22;2497;47.410;9.740;2023-03-31T03:23:08;9.10;99.90
4964;DHT22;2497;47.410;9.740;2023-03-31T03:25:35;9.00;99.90
4964;DHT22;2497;47.410;9.740;2023-03-31T03:28:03;9.00;99.90
4964;DHT22;2497;47.410;9.740;2023-03-31T03:30:30;9.00;99.90
4964;DHT22;2497;47.410;9.740;2023-03-31T03:33:00;9.00;99.90
4964;DHT22;2497;47.410;9.740;2023-03-31T03:35:28;9.00;99.90
4964;DHT22;2497;47.410;9.740;2023-03-31T03:37:55;8.90;99.90
4964;DHT22;2497;47.410;9.740;2023-03-31T03:40:22;8.90;99.90
4964;DHT22;2497;47.410;9.740;2023-03-31T03:42:49;8.90;99.90
4964;DHT22;2497;47.410;9.740;2023-03-31T03:45:16;8.90;99.90
4964;DHT22;2497;47.410;9.740;2023-03-31T03:47:44;8.90;99.90
4964;DHT22;2497;47.410;9.740;2023-03-31T03:50:12;8.90;99.90
4964;DHT22;2497;47.410;9.740;2023-03-31T03:52:39;8.90;99.90
4964;DHT22;2497;47.410;9.740;2023-03-31T03:55:07;9.00;99.90
4964;DHT22;2497;47.410;9.740;2023-03-31T03:57:36;9.10;99.90
4964;DHT22;2497;47.410;9.740;2023-03-31T04:00:05;9.10;99.90
4964;DHT22;2497;47.410;9.740;2023-03-31T04:02:35;9.10;99.90
4964;DHT22;2497;47.410;9.740;2023-03-31T04:05:02;9.10;99.90
4964;DHT22;2497;47.410;9.740;2023-03-31T04:07:31;9.10;99.90
4964;DHT22;2497;47.410;9.740;2023-03-31T04:09:58;9.10;99.90
4964;DHT22;2497;47.410;9.740;2023-03-31T04:12:25;9.00;99.90
4964;DHT22;2497;47.410;9.740;2023-03-31T04:14:52;9.00;99.90
4964;DHT22;2497;47.410;9.740;2023-03-31T04:17:20;8.90;99.90
4964;DHT22;2497;47.410;9.740;2023-03-31T04:19:57;8.90;99.90
4964;DHT22;2497;47.410;9.740;2023-03-31T04:22:27;8.90;99.90
4964;DHT22;2497;47.410;9.740;2023-03-31T04:25:01;8.80;99.90
4964;DHT22;2497;47.410;9.740;2023-03-31T04:27:29;8.80;99.90
4964;DHT22;2497;47.410;9.740;2023-03-31T04:29:58;8.90;99.90
4964;DHT22;2497;47.410;9.740;2023-03-31T04:32:25;8.80;99.90
4964;DHT22;2497;47.410;9.740;2023-03-31T04:34:53;8.80;99.90
4964;DHT22;2497;47.410;9.740;2023-03-31T04:37:27;8.70;99.90
4964;DHT22;2497;47.410;9.740;2023-03-31T04:40:00;8.70;99.90
4964;DHT22;2497;47.410;9.740;2023-03-31T04:42:34;8.60;99.90
4964;DHT22;2497;47.410;9.740;2023-03-31T04:45:01;8.60;99.90
4964;DHT22;2497;47.410;9.740;2023-03-31T04:47:33;8.60;99.90
4964;DHT22;2497;47.410;9.740;2023-03-31T04:50:00;8.50;99.90
4964;DHT22;2497;47.410;9.740;2023-03-31T04:52:27;8.60;99.90
4964;DHT22;2497;47.410;9.740;2023-03-31T04:54:54;8.70;99.90
4964;DHT22;2497;47.410;9.740;2023-03-31T04:57:23;8.70;99.90
4964;DHT22;2497;47.410;9.740;2023-03-31T04:59:51;8.60;99.90
4964;DHT22;2497;47.410;9.740;2023-03-31T05:02:19;8.60;99.90
4964;DHT22;2497;47.410;9.740;2023-03-31T05:04:48;8.80;99.90
4964;DHT22;2497;47.410;9.740;2023-03-31T05:07:18;8.80;99.90
4964;DHT22;2497;47.410;9.740;2023-03-31T05:09:45;8.70;99.90
4964;DHT22;2497;47.410;9.740;2023-03-31T05:12:12;8.70;99.90
4964;DHT22;2497;47.410;9.740;2023-03-31T05:14:41;8.70;99.90
4964;DHT22;2497;47.410;9.740;2023-03-31T05:17:08;8.70;99.90
4964;DHT22;2497;47.410;9.740;2023-03-31T05:19:35;8.70;99.90
4964;DHT22;2497;47.410;9.740;2023-03-31T05:22:03;8.70;99.90
4964;DHT22;2497;47.410;9.740;2023-03-31T05:24:30;8.80;99.90
4964;DHT22;2497;47.410;9.740;2023-03-31T05:26:57;8.80;99.90
4964;DHT22;2497;47.410;9.740;2023-03-31T05:29:26;8.80;99.90
4964;DHT22;2497;47.410;9.740;2023-03-31T05:31:55;8.80;99.90
4964;DHT22;2497;47.410;9.740;2023-03-31T05:34:22;8.80;99.90
4964;DHT22;2497;47.410;9.740;2023-03-31T05:36:49;8.80;99.90
4964;DHT22;2497;47.410;9.740;2023-03-31T05:39:18;8.90;99.90
4964;DHT22;2497;47.410;9.740;2023-03-31T05:41:45;8.90;99.90
4964;DHT22;2497;47.410;9.740;2023-03-31T05:44:13;9.00;99.90
4964;DHT22;2497;47.410;9.740;2023-03-31T05:46:42;8.90;99.90
4964;DHT22;2497;47.410;9.740;2023-03-31T05:49:10;8.90;99.90
4964;DHT22;2497;47.410;9.740;2023-03-31T05:51:40;9.00;99.90
4964;DHT22;2497;47.410;9.740;2023-03-31T05:54:07;9.10;99.90
4964;DHT22;2497;47.410;9.740;2023-03-31T05:56:34;9.10;99.90
4964;DHT22;2497;47.410;9.740;2023-03-31T05:59:01;9.30;99.90
4964;DHT22;2497;47.410;9.740;2023-03-31T06:01:30;9.40;99.90
4964;DHT22;2497;47.410;9.740;2023-03-31T06:04:00;9.40;99.90
4964;DHT22;2497;47.410;9.740;2023-03-31T06:06:29;9.40;99.90
4964;DHT22;2497;47.410;9.740;2023-03-31T06:08:57;9.60;99.90
4964;DHT22;2497;47.410;9.740;2023-03-31T06:11:25;9.60;99.90
4964;DHT22;2497;47.410;9.740;2023-03-31T06:13:52;9.60;99.90
4964;DHT22;2497;47.410;9.740;2023-03-31T06:16:19;9.70;99.90
4964;DHT22;2497;47.410;9.740;2023-03-31T06:18:47;9.70;99.90
4964;DHT22;2497;47.410;9.740;2023-03-31T06:21:17;9.80;99.90
4964;DHT22;2497;47.410;9.740;2023-03-31T06:23:48;9.80;99.90
4964;DHT22;2497;47.410;9.740;2023-03-31T06:26:19;9.80;99.90
4964;DHT22;2497;47.410;9.740;2023-03-31T06:28:49;9.80;99.90
4964;DHT22;2497;47.410;9.740;2023-03-31T06:31:18;9.90;99.90
4964;DHT22;2497;47.410;9.740;2023-03-31T06:33:46;10.10;99.90
4964;DHT22;2497;47.410;9.740;2023-03-31T06:36:15;10.00;99.90
4964;DHT22;2497;47.410;9.740;2023-03-31T06:38:42;10.00;99.90
4964;DHT22;2497;47.410;9.740;2023-03-31T06:41:12;10.20;99.90
4964;DHT22;2497;47.410;9.740;2023-03-31T06:43:40;10.20;99.90
4964;DHT22;2497;47.410;9.740;2023-03-31T06:46:08;10.20;99.90
4964;DHT22;2497;47.410;9.740;2023-03-31T06:48:35;10.30;99.90
4964;DHT22;2497;47.410;9.740;2023-03-31T06:51:10;10.20;99.90
4964;DHT22;2497;47.410;9.740;2023-03-31T06:53:39;10.30;99.90
4964;DHT22;2497;47.410;9.740;2023-03-31T06:56:06;10.40;99.90
4964;DHT22;2497;47.410;9.740;2023-03-31T06:58:35;10.60;99.90
4964;DHT22;2497;47.410;9.740;2023-03-31T07:01:03;10.50;99.90
4964;DHT22;2497;47.410;9.740;2023-03-31T07:03:30;10.70;99.90
4964;DHT22;2497;47.410;9.740;2023-03-31T07:06:00;10.90;99.90
4964;DHT22;2497;47.410;9.740;2023-03-31T07:08:27;11.10;99.90
4964;DHT22;2497;47.410;9.740;2023-03-31T07:10:58;11.20;99.90
4964;DHT22;2497;47.410;9.740;2023-03-31T07:13:28;11.40;99.90
4964;DHT22;2497;47.410;9.740;2023-03-31T07:15:56;11.40;99.90
4964;DHT22;2497;47.410;9.740;2023-03-31T07:18:24;11.50;99.90
4964;DHT22;2497;47.410;9.740;2023-03-31T07:20:57;11.50;99.90
4964;DHT22;2497;47.410;9.740;2023-03-31T07:23:25;11.50;99.90
4964;DHT22;2497;47.410;9.740;2023-03-31T07:25:52;11.60;99.90
4964;DHT22;2497;47.410;9.740;2023-03-31T07:28:19;11.60;99.90
4964;DHT22;2497;47.410;9.740;2023-03-31T07:30:46;11.70;99.90
4964;DHT22;2497;47.410;9.740;2023-03-31T07:33:16;11.80;99.90
4964;DHT22;2497;47.410;9.740;2023-03-31T07:35:43;11.80;99.90
4964;DHT22;2497;47.410;9.740;2023-03-31T07:38:11;11.80;99.90
4964;DHT22;2497;47.410;9.740;2023-03-31T07:40:39;11.80;99.90
4964;DHT22;2497;47.410;9.740;2023-03-31T07:43:07;11.90;99.90
4964;DHT22;2497;47.410;9.740;2023-03-31T07:45:35;12.00;99.90
4964;DHT22;2497;47.410;9.740;2023-03-31T07:48:02;12.00;99.90
4964;DHT22;2497;47.410;9.740;2023-03-31T07:50:30;12.10;99.90
4964;DHT22;2497;47.410;9.740;2023-03-31T07:52:58;12.00;99.90
4964;DHT22;2497;47.410;9.740;2023-03-31T07:55:25;11.90;99.90
4964;DHT22;2497;47.410;9.740;2023-03-31T07:57:52;11.70;99.90
4964;DHT22;2497;47.410;9.740;2023-03-31T08:00:20;11.70;99.90
4964;DHT22;2497;47.410;9.740;2023-03-31T08:02:47;11.70;99.90
4964;DHT22;2497;47.410;9.740;2023-03-31T08:05:16;11.60;99.90
4964;DHT22;2497;47.410;9.740;2023-03-31T08:07:49;11.60;99.90
4964;DHT22;2497;47.410;9.740;2023-03-31T08:10:19;11.60;99.90
4964;DHT22;2497;47.410;9.740;2023-03-31T08:12:46;11.50;99.90
4964;DHT22;2497;47.410;9.740;2023-03-31T08:15:14;11.40;99.90
4964;DHT22;2497;47.410;9.740;2023-03-31T08:17:41;11.30;99.90
4964;DHT22;2497;47.410;9.740;2023-03-31T08:20:09;11.10;99.90
4964;DHT22;2497;47.410;9.740;2023-03-31T08:22:40;11.00;99.90
4964;DHT22;2497;47.410;9.740;2023-03-31T08:25:09;10.90;99.90
4964;DHT22;2497;47.410;9.740;2023-03-31T08:27:38;10.90;99.90
4964;DHT22;2497;47.410;9.740;2023-03-31T08:30:07;11.10;99.90
4964;DHT22;2497;47.410;9.740;2023-03-31T08:32:36;11.20;99.90
4964;DHT22;2497;47.410;9.740;2023-03-31T08:35:03;11.30;99.90
4964;DHT22;2497;47.410;9.740;2023-03-31T08:37:31;11.30;99.90
4964;DHT22;2497;47.410;9.740;2023-03-31T08:39:58;11.30;99.90
4964;DHT22;2497;47.410;9.740;2023-03-31T08:42:35;11.40;99.90
4964;DHT22;2497;47.410;9.740;2023-03-31T08:45:05;11.40;99.90
4964;DHT22;2497;47.410;9.740;2023-03-31T08:47:37;11.30;99.90
4964;DHT22;2497;47.410;9.740;2023-03-31T08:50:10;11.20;99.90
4964;DHT22;2497;47.410;9.740;2023-03-31T08:52:41;11.30;99.90
4964;DHT22;2497;47.410;9.740;2023-03-31T08:55:18;11.20;99.90
4964;DHT22;2497;47.410;9.740;2023-03-31T08:57:55;11.20;99.90
4964;DHT22;2497;47.410;9.740;2023-03-31T09:00:23;11.30;99.90
4964;DHT22;2497;47.410;9.740;2023-03-31T09:02:57;11.40;99.90
4964;DHT22;2497;47.410;9.740;2023-03-31T09:05:36;11.30;99.90
4964;DHT22;2497;47.410;9.740;2023-03-31T09:08:12;11.30;99.90
4964;DHT22;2497;47.410;9.740;2023-03-31T09:10:52;11.30;99.90
4964;DHT22;2497;47.410;9.740;2023-03-31T09:13:39;11.50;99.90
4964;DHT22;2497;47.410;9.740;2023-03-31T09:16:13;11.50;99.90
4964;DHT22;2497;47.410;9.740;2023-03-31T09:18:41;11.60;99.90
4964;DHT22;2497;47.410;9.740;2023-03-31T09:21:17;11.90;99.90
4964;DHT22;2497;47.410;9.740;2023-03-31T09:23:50;11.90;99.90
4964;DHT22;2497;47.410;9.740;2023-03-31T09:26:24;11.90;99.90
4964;DHT22;2497;47.410;9.740;2023-03-31T09:28:57;12.10;99.90
4964;DHT22;2497;47.410;9.740;2023-03-31T09:31:25;12.10;99.90
4964;DHT22;2497;47.410;9.740;2023-03-31T09:33:58;12.10;99.90
4964;DHT22;2497;47.410;9.740;2023-03-31T09:36:27;12.10;99.90
4964;DHT22;2497;47.410;9.740;2023-03-31T09:38:54;12.10;99.90
4964;DHT22;2497;47.410;9.740;2023-03-31T09:41:21;12.30;99.90
4964;DHT22;2497;47.410;9.740;2023-03-31T09:43:48;12.30;99.90
4964;DHT22;2497;47.410;9.740;2023-03-31T09:46:23;12.40;99.90
4964;DHT22;2497;47.410;9.740;2023-03-31T09:48:57;12.70;99.90
4964;DHT22;2497;47.410;9.740;2023-03-31T09:51:27;12.80;99.90
4964;DHT22;2497;47.410;9.740;2023-03-31T09:54:01;12.80;99.90
4964;DHT22;2497;47.410;9.740;2023-03-31T09:56:45;13.00;99.90
4964;DHT22;2497;47.410;9.740;2023-03-31T09:59:16;13.10;99.90
4964;DHT22;2497;47.410;9.740;2023-03-31T10:01:46;13.60;99.90
4964;DHT22;2497;47.410;9.740;2023-03-31T10:04:20;14.00;99.90
4964;DHT22;2497;47.410;9.740;2023-03-31T10:06:49;14.00;99.90
4964;DHT22;2497;47.410;9.740;2023-03-31T10:09:18;13.90;99.90
4964;DHT22;2497;47.410;9.740;2023-03-31T10:11:53;13.80;99.90
4964;DHT22;2497;47.410;9.740;2023-03-31T10:14:25;13.80;99.90
4964;DHT22;2497;47.410;9.740;2023-03-31T10:16:56;13.60;99.90
4964;DHT22;2497;47.410;9.740;2023-03-31T10:19:25;13.40;99.90
4964;DHT22;2497;47.410;9.740;2023-03-31T10:21:57;13.10;99.90
4964;DHT22;2497;47.410;9.740;2023-03-31T10:24:25;13.00;99.90
4964;DHT22;2497;47.410;9.740;2023-03-31T10:27:01;12.90;99.90
4964;DHT22;2497;47.410;9.740;2023-03-31T10:29:32;12.90;99.90
4964;DHT22;2497;47.410;9.740;2023-03-31T10:32:09;12.80;99.90
4964;DHT22;2497;47.410;9.740;2023-03-31T10:34:40;12.80;99.90
4964;DHT22;2497;47.410;9.740;2023-03-31T10:37:13;12.70;99.90
4964;DHT22;2497;47.410;9.740;2023-03-31T10:39:43;12.60;99.90
4964;DHT22;2497;47.410;9.740;2023-03-31T10:42:18;12.50;99.90
4964;DHT22;2497;47.410;9.740;2023-03-31T10:44:47;12.50;99.90
4964;DHT22;2497;47.410;9.740;2023-03-31T10:47:20;12.40;99.90
4964;DHT22;2497;47.410;9.740;2023-03-31T10:49:50;12.50;99.90
4964;DHT22;2497;47.410;9.740;2023-03-31T10:52:23;12.60;99.90
4964;DHT22;2497;47.410;9.740;2023-03-31T10:54:53;12.70;99.90
4964;DHT22;2497;47.410;9.740;2023-03-31T10:57:31;12.90;99.90
4964;DHT22;2497;47.410;9.740;2023-03-31T11:00:14;13.10;99.90
4964;DHT22;2497;47.410;9.740;2023-03-31T11:03:08;13.40;99.90
4964;DHT22;2497;47.410;9.740;2023-03-31T11:05:43;13.60;99.90
4964;DHT22;2497;47.410;9.740;2023-03-31T11:08:33;13.80;99.90
4964;DHT22;2497;47.410;9.740;2023-03-31T11:11:15;13.90;99.90
4964;DHT22;2497;47.410;9.740;2023-03-31T11:13:49;13.90;99.90
4964;DHT22;2497;47.410;9.740;2023-03-31T11:16:24;14.10;99.90
4964;DHT22;2497;47.410;9.740;2023-03-31T11:19:04;14.20;99.90
4964;DHT22;2497;47.410;9.740;2023-03-31T11:21:43;14.40;99.90
4964;DHT22;2497;47.410;9.740;2023-03-31T11:24:22;14.60;99.90
4964;DHT22;2497;47.410;9.740;2023-03-31T11:26:55;14.90;99.90
4964;DHT22;2497;47.410;9.740;2023-03-31T11:29:33;14.80;99.90
4964;DHT22;2497;47.410;9.740;2023-03-31T11:32:25;14.70;99.90
4964;DHT22;2497;47.410;9.740;2023-03-31T11:35:06;14.60;99.90
4964;DHT22;2497;47.410;9.740;2023-03-31T11:38:01;14.50;99.90
4964;DHT22;2497;47.410;9.740;2023-03-31T11:40:42;14.50;99.90
4964;DHT22;2497;47.410;9.740;2023-03-31T11:43:19;14.60;99.90
4964;DHT22;2497;47.410;9.740;2023-03-31T11:45:52;14.60;99.90
4964;DHT22;2497;47.410;9.740;2023-03-31T11:48:31;14.60;99.90
4964;DHT22;2497;47.410;9.740;2023-03-31T11:51:13;15.10;99.90
4964;DHT22;2497;47.410;9.740;2023-03-31T11:53:42;15.50;99.90
4964;DHT22;2497;47.410;9.740;2023-03-31T11:56:12;16.10;99.90
4964;DHT22;2497;47.410;9.740;2023-03-31T11:58:44;17.00;99.90
4964;DHT22;2497;47.410;9.740;2023-03-31T12:01:20;17.00;99.90
4964;DHT22;2497;47.410;9.740;2023-03-31T12:03:57;16.70;99.90
4964;DHT22;2497;47.410;9.740;2023-03-31T12:06:30;16.20;99.90
4964;DHT22;2497;47.410;9.740;2023-03-31T12:09:09;16.10;99.90
4964;DHT22;2497;47.410;9.740;2023-03-31T12:11:42;15.40;99.90
4964;DHT22;2497;47.410;9.740;2023-03-31T12:14:22;15.00;99.90
4964;DHT22;2497;47.410;9.740;2023-03-31T12:16:54;14.70;99.90
4964;DHT22;2497;47.410;9.740;2023-03-31T12:19:27;14.30;99.90
4964;DHT22;2497;47.410;9.740;2023-03-31T12:22:04;13.80;99.90
4964;DHT22;2497;47.410;9.740;2023-03-31T12:24:33;13.70;99.90
4964;DHT22;2497;47.410;9.740;2023-03-31T12:27:05;13.40;99.90
4964;DHT22;2497;47.410;9.740;2023-03-31T12:29:40;13.40;99.90
4964;DHT22;2497;47.410;9.740;2023-03-31T12:32:12;13.40;99.90
4964;DHT22;2497;47.410;9.740;2023-03-31T12:34:45;13.20;99.90
4964;DHT22;2497;47.410;9.740;2023-03-31T12:40:34;13.00;99.90
4964;DHT22;2497;47.410;9.740;2023-03-31T12:43:27;13.00;99.90
4964;DHT22;2497;47.410;9.740;2023-03-31T12:46:03;13.20;99.90
4964;DHT22;2497;47.410;9.740;2023-03-31T12:49:03;13.30;99.90
4964;DHT22;2497;47.410;9.740;2023-03-31T12:51:47;13.30;99.90
4964;DHT22;2497;47.410;9.740;2023-03-31T12:54:38;13.40;99.90
4964;DHT22;2497;47.410;9.740;2023-03-31T12:57:19;13.40;99.90
4964;DHT22;2497;47.410;9.740;2023-03-31T13:06:00;13.40;99.90
4964;DHT22;2497;47.410;9.740;2023-03-31T13:08:55;13.40;99.90
4964;DHT22;2497;47.410;9.740;2023-03-31T13:11:36;13.50;99.90
4964;DHT22;2497;47.410;9.740;2023-03-31T13:14:11;13.50;99.90
4964;DHT22;2497;47.410;9.740;2023-03-31T13:16:39;13.60;99.90
4964;DHT22;2497;47.410;9.740;2023-03-31T13:19:08;13.50;99.90
4964;DHT22;2497;47.410;9.740;2023-03-31T13:21:53;13.30;99.90
4964;DHT22;2497;47.410;9.740;2023-03-31T13:24:22;13.20;99.90
4964;DHT22;2497;47.410;9.740;2023-03-31T13:26:49;13.00;99.90
4964;DHT22;2497;47.410;9.740;2023-03-31T13:29:24;12.60;99.90
4964;DHT22;2497;47.410;9.740;2023-03-31T13:32:17;12.30;99.90
4964;DHT22;2497;47.410;9.740;2023-03-31T13:34:55;12.00;99.90
4964;DHT22;2497;47.410;9.740;2023-03-31T13:37:40;11.70;99.90
4964;DHT22;2497;47.410;9.740;2023-03-31T13:40:36;12.90;99.90
4964;DHT22;2497;47.410;9.740;2023-03-31T13:43:37;14.40;99.90
4964;DHT22;2497;47.410;9.740;2023-03-31T13:46:26;15.00;99.90
4964;DHT22;2497;47.410;9.740;2023-03-31T13:49:05;14.30;99.90
4964;DHT22;2497;47.410;9.740;2023-03-31T13:51:43;14.00;99.90
4964;DHT22;2497;47.410;9.740;2023-03-31T14:00:45;13.50;99.90
4964;DHT22;2497;47.410;9.740;2023-03-31T14:03:28;13.60;99.90
4964;DHT22;2497;47.410;9.740;2023-03-31T14:06:02;13.70;99.90
4964;DHT22;2497;47.410;9.740;2023-03-31T14:08:45;13.80;99.90
4964;DHT22;2497;47.410;9.740;2023-03-31T14:11:16;13.80;99.90
4964;DHT22;2497;47.410;9.740;2023-03-31T14:13:44;13.70;99.90
4964;DHT22;2497;47.410;9.740;2023-03-31T14:16:25;13.50;99.90
4964;DHT22;2497;47.410;9.740;2023-03-31T14:19:01;13.50;99.90
4964;DHT22;2497;47.410;9.740;2023-03-31T14:21:35;13.40;99.90
4964;DHT22;2497;47.410;9.740;2023-03-31T14:24:13;13.30;99.90
4964;DHT22;2497;47.410;9.740;2023-03-31T14:26:55;13.10;99.90
4964;DHT22;2497;47.410;9.740;2023-03-31T14:29:30;12.90;99.90
4964;DHT22;2497;47.410;9.740;2023-03-31T14:32:08;12.40;99.90
4964;DHT22;2497;47.410;9.740;2023-03-31T14:34:49;11.40;99.90
4964;DHT22;2497;47.410;9.740;2023-03-31T14:37:19;10.60;99.90
4964;DHT22;2497;47.410;9.740;2023-03-31T14:39:50;10.20;99.90
4964;DHT22;2497;47.410;9.740;2023-03-31T14:42:22;10.30;99.90
4964;DHT22;2497;47.410;9.740;2023-03-31T14:44:55;10.60;99.90
4964;DHT22;2497;47.410;9.740;2023-03-31T14:47:26;10.90;99.90
4964;DHT22;2497;47.410;9.740;2023-03-31T14:50:05;11.00;99.90
4964;DHT22;2497;47.410;9.740;2023-03-31T14:52:35;11.20;99.90
4964;DHT22;2497;47.410;9.740;2023-03-31T14:55:05;11.30;99.90
4964;DHT22;2497;47.410;9.740;2023-03-31T14:57:35;11.60;99.90
4964;DHT22;2497;47.410;9.740;2023-03-31T15:00:10;12.10;99.90
4964;DHT22;2497;47.410;9.740;2023-03-31T15:02:40;12.30;99.90
4964;DHT22;2497;47.410;9.740;2023-03-31T15:05:20;12.70;99.90
4964;DHT22;2497;47.410;9.740;2023-03-31T15:07:49;14.00;99.90
4964;DHT22;2497;47.410;9.740;2023-03-31T15:10:19;14.70;99.90
4964;DHT22;2497;47.410;9.740;2023-03-31T15:12:47;15.60;99.90
4964;DHT22;2497;47.410;9.740;2023-03-31T15:15:22;16.20;99.90
4964;DHT22;2497;47.410;9.740;2023-03-31T15:17:52;16.80;99.90
4964;DHT22;2497;47.410;9.740;2023-03-31T15:20:29;17.30;99.90
4964;DHT22;2497;47.410;9.740;2023-03-31T15:22:58;17.00;99.90
4964;DHT22;2497;47.410;9.740;2023-03-31T15:25:30;17.00;99.90
4964;DHT22;2497;47.410;9.740;2023-03-31T15:28:01;17.40;99.90
4964;DHT22;2497;47.410;9.740;2023-03-31T15:30:30;17.60;99.90
4964;DHT22;2497;47.410;9.740;2023-03-31T15:32:58;17.50;99.90
4964;DHT22;2497;47.410;9.740;2023-03-31T15:35:29;17.80;99.90
4964;DHT22;2497;47.410;9.740;2023-03-31T15:37:58;17.70;99.90
4964;DHT22;2497;47.410;9.740;2023-03-31T15:40:29;17.50;99.90
4964;DHT22;2497;47.410;9.740;2023-03-31T15:43:02;17.70;99.90
4964;DHT22;2497;47.410;9.740;2023-03-31T15:45:44;18.40;99.90
4964;DHT22;2497;47.410;9.740;2023-03-31T15:48:17;19.50;99.90
4964;DHT22;2497;47.410;9.740;2023-03-31T15:50:47;19.10;99.90
4964;DHT22;2497;47.410;9.740;2023-03-31T15:53:30;18.10;99.90
4964;DHT22;2497;47.410;9.740;2023-03-31T15:55:58;17.10;99.90
4964;DHT22;2497;47.410;9.740;2023-03-31T15:58:54;16.10;99.90
4964;DHT22;2497;47.410;9.740;2023-03-31T16:01:22;15.40;99.90
4964;DHT22;2497;47.410;9.740;2023-03-31T16:03:51;14.90;99.90
4964;DHT22;2497;47.410;9.740;2023-03-31T16:06:31;14.80;99.90
4964;DHT22;2497;47.410;9.740;2023-03-31T16:09:03;14.60;99.90
4964;DHT22;2497;47.410;9.740;2023-03-31T16:11:36;14.40;99.90
4964;DHT22;2497;47.410;9.740;2023-03-31T16:14:09;13.60;99.90
4964;DHT22;2497;47.410;9.740;2023-03-31T16:16:39;12.60;99.90
4964;DHT22;2497;47.410;9.740;2023-03-31T16:19:11;11.90;99.90
4964;DHT22;2497;47.410;9.740;2023-03-31T16:21:43;11.40;99.90
4964;DHT22;2497;47.410;9.740;2023-03-31T16:24:12;11.30;99.90
4964;DHT22;2497;47.410;9.740;2023-03-31T16:26:41;11.60;99.90
4964;DHT22;2497;47.410;9.740;2023-03-31T16:29:08;11.60;99.90
4964;DHT22;2497;47.410;9.740;2023-03-31T16:31:39;11.60;99.90
4964;DHT22;2497;47.410;9.740;2023-03-31T16:34:08;11.50;99.90
4964;DHT22;2497;47.410;9.740;2023-03-31T16:36:36;11.60;99.90
4964;DHT22;2497;47.410;9.740;2023-03-31T16:39:07;11.30;99.90
4964;DHT22;2497;47.410;9.740;2023-03-31T16:41:35;11.20;99.90
4964;DHT22;2497;47.410;9.740;2023-03-31T16:44:04;11.00;99.90
4964;DHT22;2497;47.410;9.740;2023-03-31T16:46:32;10.70;99.90
4964;DHT22;2497;47.410;9.740;2023-03-31T16:48:59;10.40;99.90
4964;DHT22;2497;47.410;9.740;2023-03-31T16:51:26;10.30;99.90
4964;DHT22;2497;47.410;9.740;2023-03-31T16:53:54;10.30;99.90
4964;DHT22;2497;47.410;9.740;2023-03-31T16:56:22;10.30;99.90
4964;DHT22;2497;47.410;9.740;2023-03-31T16:58:51;10.30;99.90
4964;DHT22;2497;47.410;9.740;2023-03-31T17:01:19;10.50;99.90
4964;DHT22;2497;47.410;9.740;2023-03-31T17:03:46;11.00;99.90
4964;DHT22;2497;47.410;9.740;2023-03-31T17:06:14;11.80;99.90
4964;DHT22;2497;47.410;9.740;2023-03-31T17:08:41;12.20;99.90
4964;DHT22;2497;47.410;9.740;2023-03-31T17:11:09;12.30;99.90
4964;DHT22;2497;47.410;9.740;2023-03-31T17:13:41;12.20;99.90